Time;durP1;ratioP1;P1;durP2;ratioP2;P2;SDS_P1;SDS_P2;PMS_P1;PMS_P2;Temp;Humidity;BMP_temperature;BMP_pressure;BME280_temperature;BME280_humidity;BME280_pressure;Samples;Min_cycle;Max_cycle;Signal;HPM_P1;HPM_P2
2022/07/04 00:01:40;;;;;;;18.27;15.15;;;;;;;;;;5114040;28;20120;-53
2022/07/04 00:04:07;;;;;;;20.77;14.68;;;;;;;;;;5114033;28;20047;-53
2022/07/04 00:06:35;;;;;;;34.10;17.63;;;;;;;;;;5113361;28;20050;-53
2022/07/04 00:09:02;;;;;;;20.83;17.15;;;;;;;;;;5113808;28;20085;-52
2022/07/04 00:11:29;;;;;;;17.30;14.07;;;;;;;;;;5113644;28;20043;-53
2022/07/04 00:13:57;;;;;;;20.02;16.25;;;;;;;;;;5113682;28;20032;-53
2022/07/04 00:16:27;;;;;;;18.80;15.48;;;;;;;;;;5095598;28;20040;-53
2022/07/04 00:18:54;;;;;;;15.15;13.57;;;;;;;;;;5113599;28;20069;-52
2022/07/04 00:21:21;;;;;;;17.15;15.32;;;;;;;;;;5095406;28;20031;-51
2022/07/04 00:23:51;;;;;;;15.77;13.52;;;;;;;;;;5113814;28;20036;-51
2022/07/04 00:26:18;;;;;;;17.65;13.93;;;;;;;;;;5113319;28;20483;-52
2022/07/04 00:28:46;;;;;;;17.85;15.20;;;;;;;;;;5113277;28;20039;-51
2022/07/04 00:31:13;;;;;;;17.70;14.93;;;;;;;;;;5113180;28;20096;-52
2022/07/04 00:33:40;;;;;;;19.15;15.23;;;;;;;;;;5113277;28;20384;-52
2022/07/04 00:36:07;;;;;;;19.33;15.95;;;;;;;;;;5113134;28;20443;-53
2022/07/04 00:38:34;;;;;;;17.67;14.45;;;;;;;;;;5113355;28;20031;-54
2022/07/04 00:41:02;;;;;;;14.68;13.07;;;;;;;;;;5113083;28;20082;-52
2022/07/04 00:43:29;;;;;;;29.88;20.75;;;;;;;;;;5113449;28;20122;-52
2022/07/04 00:46:04;;;;;;;14.52;13.00;;;;;;;;;;5113298;28;20048;-51
2022/07/04 00:48:32;;;;;;;13.38;12.00;;;;;;;;;;5113035;28;20050;-51
2022/07/04 00:51:00;;;;;;;17.48;13.85;;;;;;;;;;5112823;28;20098;-53
2022/07/04 00:53:27;;;;;;;15.68;14.07;;;;;;;;;;5112893;28;20097;-52
2022/07/04 00:55:55;;;;;;;11.82;10.63;;;;;;;;;;5112970;28;20035;-52
2022/07/04 00:58:23;;;;;;;11.32;10.23;;;;;;;;;;5112938;28;20402;-53
2022/07/04 01:00:50;;;;;;;16.42;12.52;;;;;;;;;;5112731;28;20039;-47
2022/07/04 01:03:17;;;;;;;15.82;14.00;;;;;;;;;;5113153;28;20035;-54
2022/07/04 01:05:45;;;;;;;15.57;13.68;;;;;;;;;;5112689;28;20032;-51
2022/07/04 01:08:12;;;;;;;15.93;14.23;;;;;;;;;;5112956;28;20092;-52
2022/07/04 01:10:40;;;;;;;22.98;12.82;;;;;;;;;;5112518;28;20046;-54
2022/07/04 01:13:07;;;;;;;14.00;12.60;;;;;;;;;;5112385;28;20051;-51
2022/07/04 01:15:34;;;;;;;17.30;15.15;;;;;;;;;;5112584;28;20039;-52
2022/07/04 01:18:01;;;;;;;16.55;14.85;;;;;;;;;;5112524;28;20523;-52
2022/07/04 01:20:36;;;;;;;35.63;23.95;;;;;;;;;;5094239;28;20520;-52
2022/07/04 01:23:04;;;;;;;15.45;12.25;;;;;;;;;;5112538;28;20046;-52
2022/07/04 01:25:32;;;;;;;17.88;14.85;;;;;;;;;;5112384;28;20039;-53
2022/07/04 01:28:00;;;;;;;18.95;14.23;;;;;;;;;;5112506;28;20108;-53
2022/07/04 01:30:28;;;;;;;13.65;12.18;;;;;;;;;;5112404;28;20035;-53
2022/07/04 01:32:56;;;;;;;16.55;13.80;;;;;;;;;;5112325;28;20043;-53
2022/07/04 01:35:24;;;;;;;25.90;18.20;;;;;;;;;;5112250;28;20074;-50
2022/07/04 01:37:51;;;;;;;52.20;26.65;;;;;;;;;;5112564;28;20442;-54
2022/07/04 01:40:18;;;;;;;17.67;14.57;;;;;;;;;;5112194;28;20089;-53
2022/07/04 01:42:46;;;;;;;15.18;13.18;;;;;;;;;;5115700;28;20035;-53
2022/07/04 01:45:13;;;;;;;17.50;15.63;;;;;;;;;;5116664;28;20088;-51
2022/07/04 01:47:41;;;;;;;14.20;12.77;;;;;;;;;;5116255;28;20085;-52
2022/07/04 01:50:12;;;;;;;27.38;20.67;;;;;;;;;;5116569;28;20039;-52
2022/07/04 01:52:40;;;;;;;14.52;12.57;;;;;;;;;;5116129;28;20134;-52
2022/07/04 01:55:11;;;;;;;13.63;12.18;;;;;;;;;;5116659;28;20073;-51
2022/07/04 01:57:39;;;;;;;24.25;17.05;;;;;;;;;;5116473;28;20078;-53
2022/07/04 02:02:56;;;;;;;15.07;10.55;;;;;;;;;;5116193;28;20038;-54
2022/07/04 02:05:23;;;;;;;11.80;10.63;;;;;;;;;;5116028;28;20092;-54
2022/07/04 02:07:51;;;;;;;11.55;9.93;;;;;;;;;;5116292;28;20441;-53
2022/07/04 02:10:18;;;;;;;11.25;10.13;;;;;;;;;;5098059;28;20551;-52
2022/07/04 02:13:01;;;;;;;13.70;12.32;;;;;;;;;;5116301;28;20042;-52
2022/07/04 02:15:35;;;;;;;12.02;10.77;;;;;;;;;;5116108;28;20035;-50
2022/07/04 02:18:04;;;;;;;10.30;9.35;;;;;;;;;;5115758;28;20052;-51
2022/07/04 02:20:32;;;;;;;11.90;10.32;;;;;;;;;;5115862;28;20077;-52
2022/07/04 02:23:00;;;;;;;11.68;10.57;;;;;;;;;;5115920;28;20031;-52
2022/07/04 02:25:27;;;;;;;11.40;9.90;;;;;;;;;;5115845;28;20119;-52
2022/07/04 02:27:55;;;;;;;11.18;10.07;;;;;;;;;;5115759;28;20048;-53
2022/07/04 02:30:23;;;;;;;10.80;9.77;;;;;;;;;;5115219;28;20067;-51
2022/07/04 02:32:51;;;;;;;13.23;9.10;;;;;;;;;;5115569;28;20031;-51
2022/07/04 02:35:18;;;;;;;15.93;9.38;;;;;;;;;;5115988;28;20097;-50
2022/07/04 02:37:46;;;;;;;13.40;12.00;;;;;;;;;;5115464;28;20039;-52
2022/07/04 02:40:13;;;;;;;13.23;10.05;;;;;;;;;;5115445;28;20086;-54
2022/07/04 02:42:41;;;;;;;10.52;8.55;;;;;;;;;;5115390;28;20104;-54
2022/07/04 02:45:08;;;;;;;9.07;8.18;;;;;;;;;;5115324;28;20096;-54
2022/07/04 02:47:36;;;;;;;7.65;6.85;;;;;;;;;;5115360;28;20108;-54
2022/07/04 02:50:03;;;;;;;13.00;10.32;;;;;;;;;;5114924;28;20048;-51
2022/07/04 02:52:31;;;;;;;25.10;10.25;;;;;;;;;;5114682;27;20063;-54
2022/07/04 02:54:58;;;;;;;8.48;7.60;;;;;;;;;;5115150;28;20047;-54
2022/07/04 02:57:26;;;;;;;8.75;7.07;;;;;;;;;;5114897;28;20118;-52
2022/07/04 05:56:11;;;;;;;5.20;3.45;;;;;;;;;;5159128;24;20114;-59
2022/07/04 05:58:40;;;;;;;3.28;2.30;;;;;;;;;;4733203;30;20048;-67
2022/07/04 06:01:08;;;;;;;4.10;2.40;;;;;;;;;;4733133;30;20045;-60
2022/07/04 06:03:36;;;;;;;3.75;2.70;;;;;;;;;;4733312;30;20459;-60
2022/07/04 06:06:05;;;;;;;3.63;2.58;;;;;;;;;;4733557;30;20045;-59
2022/07/04 06:08:32;;;;;;;4.15;3.00;;;;;;;;;;4733658;30;20056;-60
2022/07/04 06:11:00;;;;;;;3.10;2.50;;;;;;;;;;4733774;30;20053;-65
2022/07/04 06:13:27;;;;;;;4.75;3.10;;;;;;;;;;4733214;30;20049;-60
2022/07/04 06:15:55;;;;;;;4.60;3.67;;;;;;;;;;4733290;30;20150;-60
2022/07/04 06:18:24;;;;;;;4.60;3.13;;;;;;;;;;4733976;30;20505;-60
2022/07/04 06:20:51;;;;;;;4.78;3.30;;;;;;;;;;4732900;30;20053;-59
2022/07/04 06:23:18;;;;;;;7.32;3.03;;;;;;;;;;4733260;30;20060;-60
2022/07/04 06:25:46;;;;;;;6.78;3.63;;;;;;;;;;4733162;30;20097;-66
2022/07/04 06:28:14;;;;;;;5.00;3.35;;;;;;;;;;4718982;30;20051;-65
2022/07/04 06:31:01;;;;;;;4.25;3.40;;;;;;;;;;4736517;30;20578;-60
2022/07/04 06:33:29;;;;;;;5.35;3.30;;;;;;;;;;4736568;30;20503;-59
2022/07/04 06:35:56;;;;;;;50.70;34.03;;;;;;;;;;4736158;30;20048;-60
2022/07/04 06:38:29;;;;;;;11.40;5.40;;;;;;;;;;4736012;30;20110;-59
2022/07/04 06:40:58;;;;;;;5.22;3.90;;;;;;;;;;4736226;30;20276;-59
2022/07/04 06:43:26;;;;;;;4.60;3.90;;;;;;;;;;4736019;30;20432;-59
2022/07/04 06:45:53;;;;;;;6.25;4.03;;;;;;;;;;4735970;30;20052;-60
2022/07/04 06:48:21;;;;;;;4.68;3.90;;;;;;;;;;4736025;30;20041;-59
2022/07/04 06:50:48;;;;;;;4.35;3.75;;;;;;;;;;4720417;30;20127;-59
2022/07/04 06:53:15;;;;;;;16.10;12.50;;;;;;;;;;4736276;30;20049;-59
2022/07/04 06:55:43;;;;;;;8.30;6.18;;;;;;;;;;4736130;30;20061;-59
2022/07/04 06:58:12;;;;;;;5.30;4.00;;;;;;;;;;4735858;30;20061;-60
2022/07/04 07:00:41;;;;;;;6.55;4.28;;;;;;;;;;4735935;30;20069;-60
2022/07/04 07:03:08;;;;;;;4.40;3.58;;;;;;;;;;4736009;30;20051;-59
2022/07/04 07:05:36;;;;;;;4.57;4.00;;;;;;;;;;4735773;30;20430;-60
2022/07/04 07:08:24;;;;;;;6.40;3.63;;;;;;;;;;4735793;30;20493;-59
2022/07/04 07:10:51;;;;;;;7.47;3.40;;;;;;;;;;4735797;30;20044;-60
2022/07/04 07:13:18;;;;;;;5.13;3.80;;;;;;;;;;4735636;30;20059;-60
2022/07/04 07:15:45;;;;;;;5.45;3.38;;;;;;;;;;4735344;30;20548;-59
2022/07/04 07:18:13;;;;;;;4.45;3.55;;;;;;;;;;4719897;30;20064;-59
2022/07/04 07:20:40;;;;;;;3.70;3.30;;;;;;;;;;4735300;30;20072;-59
2022/07/04 07:23:07;;;;;;;5.22;3.53;;;;;;;;;;4735751;30;20122;-67
2022/07/04 07:25:35;;;;;;;3.40;3.08;;;;;;;;;;4735480;30;20513;-66
2022/07/04 07:28:02;;;;;;;22.17;13.30;;;;;;;;;;4735585;30;20048;-59
2022/07/04 07:30:29;;;;;;;9.45;5.57;;;;;;;;;;4735737;30;20600;-59
2022/07/04 07:32:57;;;;;;;4.40;3.40;;;;;;;;;;4734892;30;20139;-59
2022/07/04 07:35:24;;;;;;;3.88;3.08;;;;;;;;;;4735301;30;20505;-59
2022/07/04 07:37:51;;;;;;;4.20;3.08;;;;;;;;;;4734704;30;20098;-60
2022/07/04 07:40:18;;;;;;;3.65;2.70;;;;;;;;;;4734496;30;20122;-66
2022/07/04 07:42:46;;;;;;;5.40;3.53;;;;;;;;;;4735355;30;20052;-59
2022/07/04 07:45:13;;;;;;;3.13;2.53;;;;;;;;;;4735481;30;20075;-59
2022/07/04 07:47:40;;;;;;;3.78;2.90;;;;;;;;;;4735253;30;20057;-58
2022/07/04 07:50:09;;;;;;;3.15;2.58;;;;;;;;;;4735302;30;20037;-59
2022/07/04 07:52:36;;;;;;;3.40;2.90;;;;;;;;;;4735262;30;20413;-61
2022/07/04 07:55:05;;;;;;;4.43;2.92;;;;;;;;;;4719074;30;20065;-59
2022/07/04 07:57:32;;;;;;;4.68;2.92;;;;;;;;;;4734947;30;20106;-59
2022/07/04 07:59:59;;;;;;;4.63;2.60;;;;;;;;;;4719377;30;20065;-60
2022/07/04 08:05:13;;;;;;;4.13;2.50;;;;;;;;;;4734681;30;20060;-59
2022/07/04 08:07:43;;;;;;;4.90;3.13;;;;;;;;;;4734486;30;20505;-59
2022/07/04 08:10:10;;;;;;;3.90;2.75;;;;;;;;;;4735178;30;20413;-59
2022/07/04 08:12:37;;;;;;;2.53;2.13;;;;;;;;;;4734849;30;20494;-59
2022/07/04 08:15:05;;;;;;;3.85;2.15;;;;;;;;;;4734568;30;20417;-63
2022/07/04 08:17:34;;;;;;;5.30;2.17;;;;;;;;;;4734606;30;20052;-59
2022/07/04 08:20:05;;;;;;;2.90;2.20;;;;;;;;;;4734831;30;20061;-59
2022/07/04 08:22:35;;;;;;;3.67;2.15;;;;;;;;;;4734579;30;20132;-59
2022/07/04 08:25:02;;;;;;;3.03;2.15;;;;;;;;;;4734418;30;20051;-65
2022/07/04 08:27:30;;;;;;;4.25;2.05;;;;;;;;;;4734416;30;20436;-64
2022/07/04 08:30:00;;;;;;;4.35;2.30;;;;;;;;;;4734612;30;20052;-63
2022/07/04 08:32:28;;;;;;;4.90;2.80;;;;;;;;;;4734504;30;20045;-64
2022/07/04 08:34:55;;;;;;;4.63;2.13;;;;;;;;;;4734212;30;20529;-62
2022/07/04 08:37:25;;;;;;;8.10;5.32;;;;;;;;;;4734499;30;20056;-63
2022/07/04 08:39:52;;;;;;;4.13;2.47;;;;;;;;;;4734179;30;20052;-59
2022/07/04 08:42:21;;;;;;;5.55;2.13;;;;;;;;;;4734491;30;20076;-60
2022/07/04 08:44:51;;;;;;;5.05;2.10;;;;;;;;;;4734190;30;20053;-58
2022/07/04 08:47:22;;;;;;;3.08;2.03;;;;;;;;;;4734176;30;20152;-63
2022/07/04 08:50:11;;;;;;;3.72;1.88;;;;;;;;;;4734011;30;20416;-63
2022/07/04 08:52:43;;;;;;;4.22;1.83;;;;;;;;;;4734134;30;20051;-60
2022/07/04 09:00:45;;;;;;;3.25;1.80;;;;;;;;;;4734310;30;20055;-59
2022/07/04 09:03:12;;;;;;;3.42;1.70;;;;;;;;;;4734198;30;20053;-60
2022/07/04 09:05:40;;;;;;;3.47;1.80;;;;;;;;;;4734093;30;20052;-60
2022/07/04 09:08:07;;;;;;;2.53;1.80;;;;;;;;;;4733835;30;20045;-59
2022/07/04 09:10:35;;;;;;;2.83;2.08;;;;;;;;;;4733649;30;20056;-59
2022/07/04 09:13:07;;;;;;;2.88;1.77;;;;;;;;;;4733799;30;20049;-60
2022/07/04 09:15:40;;;;;;;2.55;1.95;;;;;;;;;;4733935;30;20095;-60
2022/07/04 09:18:22;;;;;;;3.75;2.35;;;;;;;;;;4733857;30;20391;-66
2022/07/04 09:20:50;;;;;;;3.47;2.13;;;;;;;;;;4733656;30;20045;-59
2022/07/04 09:23:26;;;;;;;4.90;2.15;;;;;;;;;;4733736;30;20048;-63
2022/07/04 09:26:19;;;;;;;2.95;2.20;;;;;;;;;;4733761;30;20045;-59
2022/07/04 09:28:58;;;;;;;;;;;;;;;;;;4733700;30;20052;-60
2022/07/04 09:31:28;;;;;;;2.90;2.20;;;;;;;;;;4733779;30;19957;-59
2022/07/04 09:33:57;;;;;;;3.60;2.30;;;;;;;;;;4733633;30;20056;-60
2022/07/04 09:36:27;;;;;;;3.90;1.85;;;;;;;;;;4733742;30;20413;-61
2022/07/04 09:39:18;;;;;;;4.47;1.90;;;;;;;;;;4733487;30;20068;-60
2022/07/04 09:41:56;;;;;;;4.22;1.90;;;;;;;;;;4733588;30;20060;-60
2022/07/04 09:44:29;;;;;;;2.25;1.75;;;;;;;;;;4733706;30;20045;-59
2022/07/04 09:46:56;;;;;;;;;;;;;;;;;;4733562;30;20053;-60
2022/07/04 09:49:24;;;;;;;2.80;1.75;;;;;;;;;;4733589;30;20365;-60
2022/07/04 09:51:52;;;;;;;3.90;1.80;;;;;;;;;;4733399;30;20056;-61
2022/07/04 09:54:31;;;;;;;10.20;4.70;;;;;;;;;;4726601;30;20044;-60
2022/07/04 09:57:02;;;;;;;13.50;8.32;;;;;;;;;;4733316;30;20060;-62
2022/07/04 09:59:30;;;;;;;18.08;12.45;;;;;;;;;;4733379;30;20068;-61
2022/07/04 10:02:11;;;;;;;3.55;2.00;;;;;;;;;;4733621;30;20049;-60
2022/07/04 10:04:42;;;;;;;2.17;1.50;;;;;;;;;;4736910;30;20695;-59
2022/07/04 10:07:10;;;;;;;2.47;1.70;;;;;;;;;;4736912;30;20553;-60
2022/07/04 10:09:37;;;;;;;3.38;1.90;;;;;;;;;;4736818;30;20053;-64
2022/07/04 10:12:08;;;;;;;10.10;2.03;;;;;;;;;;4736629;30;20051;-60
2022/07/04 10:14:35;;;;;;;3.88;1.50;;;;;;;;;;4736479;30;20061;-59
2022/07/04 10:17:05;;;;;;;3.90;1.73;;;;;;;;;;4736816;30;20445;-59
2022/07/04 10:19:35;;;;;;;3.47;1.60;;;;;;;;;;4736595;30;20045;-59
2022/07/04 10:22:04;;;;;;;2.22;1.55;;;;;;;;;;4736383;30;20049;-65
2022/07/04 10:24:32;;;;;;;3.28;1.80;;;;;;;;;;4736330;30;20413;-59
2022/07/04 10:26:59;;;;;;;3.35;1.65;;;;;;;;;;4736301;30;20063;-66
2022/07/04 10:29:26;;;;;;;40.60;26.38;;;;;;;;;;4736202;30;20463;-60
2022/07/04 10:31:54;;;;;;;4.15;2.58;;;;;;;;;;4736430;30;20084;-60
2022/07/04 10:34:21;;;;;;;2.60;1.35;;;;;;;;;;4736313;30;20053;-60
2022/07/04 10:36:52;;;;;;;3.50;1.50;;;;;;;;;;4735981;30;20060;-60
2022/07/04 10:39:24;;;;;;;3.28;1.40;;;;;;;;;;4728765;30;20051;-64
2022/07/04 10:41:58;;;;;;;2.10;1.10;;;;;;;;;;4736093;30;20049;-61
2022/07/04 10:44:37;;;;;;;2.05;1.45;;;;;;;;;;4735993;30;20131;-59
2022/07/04 10:47:05;;;;;;;1.65;1.10;;;;;;;;;;4736175;30;20056;-62
2022/07/04 10:49:34;;;;;;;1.45;1.10;;;;;;;;;;4735885;30;20571;-60
2022/07/04 10:52:11;;;;;;;2.40;1.20;;;;;;;;;;4736041;30;20084;-65
2022/07/04 10:54:41;;;;;;;2.15;1.02;;;;;;;;;;4736209;30;20062;-65
2022/07/04 10:57:17;;;;;;;2.63;1.27;;;;;;;;;;4735947;30;20111;-65
2022/07/04 11:00:05;;;;;;;3.55;1.20;;;;;;;;;;4736158;30;20473;-66
2022/07/04 11:02:38;;;;;;;1.98;1.20;;;;;;;;;;4735699;30;20049;-60
2022/07/04 11:05:08;;;;;;;6.78;3.58;;;;;;;;;;4735722;30;20095;-64
2022/07/04 11:07:35;;;;;;;5.95;1.70;;;;;;;;;;4735981;30;20048;-65
2022/07/04 11:12:54;;;;;;;2.42;0.93;;;;;;;;;;4735454;30;20072;-63
2022/07/04 11:15:25;;;;;;;3.45;1.02;;;;;;;;;;4735670;30;20501;-65
2022/07/04 11:18:13;;;;;;;1.98;1.05;;;;;;;;;;4735837;30;20116;-63
2022/07/04 11:20:49;;;;;;;1.40;0.80;;;;;;;;;;4735775;30;20044;-60
2022/07/04 11:23:21;;;;;;;1.95;1.15;;;;;;;;;;4735825;30;20055;-64
2022/07/04 11:25:50;;;;;;;;;;;;;;;;;;4735945;30;20416;-64
2022/07/04 11:28:37;;;;;;;1.13;0.80;;;;;;;;;;4735654;30;19932;-63
2022/07/04 11:31:11;;;;;;;3.50;0.73;;;;;;;;;;4735303;30;20500;-60
2022/07/04 11:33:41;;;;;;;4.53;0.93;;;;;;;;;;4735361;30;20054;-67
2022/07/04 11:36:18;;;;;;;8.93;5.82;;;;;;;;;;4735488;30;20501;-65
2022/07/04 11:38:49;;;;;;;5.53;1.35;;;;;;;;;;4735087;30;20056;-60
2022/07/04 11:47:22;;;;;;;2.15;1.05;;;;;;;;;;4734871;30;20122;-60
2022/07/04 11:49:55;;;;;;;2.00;1.10;;;;;;;;;;4730583;30;20061;-62
2022/07/04 11:52:26;;;;;;;4.00;1.20;;;;;;;;;;4717779;30;20060;-59
2022/07/04 11:55:16;;;;;;;2.63;1.10;;;;;;;;;;4717675;30;20053;-62
2022/07/04 11:57:52;;;;;;;2.75;1.10;;;;;;;;;;4717834;30;20080;-60
2022/07/04 12:00:25;;;;;;;4.15;0.85;;;;;;;;;;4717547;30;20103;-62
2022/07/04 12:02:53;;;;;;;3.95;1.10;;;;;;;;;;4717474;30;20049;-64
2022/07/04 12:05:20;;;;;;;1.02;0.70;;;;;;;;;;4717157;30;20520;-65
2022/07/04 12:07:48;;;;;;;2.20;0.90;;;;;;;;;;4717465;30;20057;-65
2022/07/04 12:10:36;;;;;;;1.63;0.82;;;;;;;;;;4712558;30;20057;-65
2022/07/04 12:13:07;;;;;;;1.50;1.00;;;;;;;;;;4716787;30;20453;-63
2022/07/04 12:15:41;;;;;;;4.65;1.05;;;;;;;;;;4717150;30;20554;-63
2022/07/04 12:18:29;;;;;;;2.75;1.05;;;;;;;;;;4717490;30;20041;-64
2022/07/04 12:21:11;;;;;;;48.20;27.60;;;;;;;;;;4716890;30;20053;-64
2022/07/04 12:23:39;;;;;;;;;;;;;;;;;;4717576;30;20533;-62
2022/07/04 12:26:27;;;;;;;2.95;1.20;;;;;;;;;;4716915;30;20022;-64
2022/07/04 12:28:58;;;;;;;2.80;1.05;;;;;;;;;;4722891;30;20037;-60
2022/07/04 12:31:39;;;;;;;3.60;1.05;;;;;;;;;;4716903;30;20136;-61
2022/07/04 12:34:17;;;;;;;2.35;0.90;;;;;;;;;;4717097;30;20049;-64
2022/07/04 12:36:52;;;;;;;2.72;1.05;;;;;;;;;;4716754;30;20045;-64
2022/07/04 12:39:39;;;;;;;1.83;0.90;;;;;;;;;;4717111;30;20059;-65
2022/07/04 12:42:19;;;;;;;2.40;1.10;;;;;;;;;;4716951;30;20575;-65
2022/07/04 12:44:51;;;;;;;1.92;0.98;;;;;;;;;;4716607;30;20052;-60
2022/07/04 12:47:19;;;;;;;2.60;0.68;;;;;;;;;;4716958;30;20462;-64
2022/07/04 12:50:06;;;;;;;1.27;0.80;;;;;;;;;;4720801;30;20498;-65
2022/07/04 12:52:34;;;;;;;3.17;0.90;;;;;;;;;;4734262;30;20051;-60
2022/07/04 12:55:03;;;;;;;2.63;0.80;;;;;;;;;;4733910;30;20521;-66
2022/07/04 12:57:31;;;;;;;1.98;0.90;;;;;;;;;;4734880;30;20056;-65
2022/07/04 12:59:58;;;;;;;3.90;0.80;;;;;;;;;;4733875;30;20059;-65
2022/07/04 13:02:45;;;;;;;2.80;0.90;;;;;;;;;;4733796;30;20048;-60
2022/07/04 13:05:13;;;;;;;22.33;13.18;;;;;;;;;;4734053;30;20060;-64
2022/07/04 13:07:41;;;;;;;3.20;1.48;;;;;;;;;;4734160;30;20056;-64
2022/07/04 13:10:08;;;;;;;2.38;1.00;;;;;;;;;;4733764;30;20049;-65
2022/07/04 13:12:35;;;;;;;2.85;1.20;;;;;;;;;;4733772;30;20572;-65
2022/07/04 13:15:05;;;;;;;1.58;0.90;;;;;;;;;;4733757;30;20052;-65
2022/07/04 13:17:32;;;;;;;2.10;0.98;;;;;;;;;;4733771;30;20414;-63
2022/07/04 13:20:01;;;;;;;4.28;1.27;;;;;;;;;;4733865;30;20052;-64
2022/07/04 13:22:29;;;;;;;2.45;1.23;;;;;;;;;;4733780;30;20100;-64
2022/07/04 13:24:59;;;;;;;2.05;1.00;;;;;;;;;;4733783;30;20048;-65
2022/07/04 13:27:28;;;;;;;3.17;0.75;;;;;;;;;;4733827;30;20052;-65
2022/07/04 13:29:55;;;;;;;1.50;1.02;;;;;;;;;;4733588;30;20485;-64
2022/07/04 13:32:22;;;;;;;4.55;1.00;;;;;;;;;;4733648;30;20130;-64
2022/07/04 13:34:50;;;;;;;4.57;1.10;;;;;;;;;;4733435;30;20076;-61
2022/07/04 13:37:18;;;;;;;58.72;40.63;;;;;;;;;;4732808;30;20044;-61
2022/07/04 13:39:46;;;;;;;4.15;2.30;;;;;;;;;;4733446;30;20057;-61
2022/07/04 13:45:03;;;;;;;1.63;0.98;;;;;;;;;;4733496;30;20073;-62
2022/07/04 13:47:31;;;;;;;3.60;1.25;;;;;;;;;;4733670;30;20448;-60
2022/07/04 13:49:58;;;;;;;2.60;0.93;;;;;;;;;;4733332;30;20049;-61
2022/07/04 13:52:26;;;;;;;2.08;1.10;;;;;;;;;;4733646;30;20107;-65
2022/07/04 13:54:54;;;;;;;1.92;1.05;;;;;;;;;;4733048;30;20064;-64
2022/07/04 13:57:23;;;;;;;6.47;3.10;;;;;;;;;;4733461;30;20528;-60
2022/07/04 13:59:50;;;;;;;1.52;0.82;;;;;;;;;;4733532;30;20060;-63
2022/07/04 14:02:18;;;;;;;1.77;1.00;;;;;;;;;;4726205;30;20041;-65
2022/07/04 14:04:45;;;;;;;3.28;1.30;;;;;;;;;;4733260;30;20509;-60
2022/07/04 14:07:12;;;;;;;2.72;1.30;;;;;;;;;;4733239;30;20110;-66
2022/07/04 14:09:46;;;;;;;2.15;1.00;;;;;;;;;;4733168;30;20476;-60
2022/07/04 14:12:14;;;;;;;1.90;1.00;;;;;;;;;;4733388;30;20525;-65
2022/07/04 14:14:43;;;;;;;1.58;0.90;;;;;;;;;;4733497;30;20505;-63
2022/07/04 14:17:11;;;;;;;4.13;1.20;;;;;;;;;;4733207;30;20390;-65
2022/07/04 14:19:58;;;;;;;2.88;1.08;;;;;;;;;;4733399;30;20561;-65
2022/07/04 14:22:25;;;;;;;2.72;0.85;;;;;;;;;;4733333;30;20048;-65
2022/07/04 14:24:53;;;;;;;1.58;0.90;;;;;;;;;;4733082;30;20060;-64
2022/07/04 14:27:20;;;;;;;1.45;0.77;;;;;;;;;;4733306;30;20052;-65
2022/07/04 14:29:47;;;;;;;2.00;0.98;;;;;;;;;;4733350;30;20106;-65
2022/07/04 14:32:15;;;;;;;1.90;0.90;;;;;;;;;;4733527;30;20505;-64
2022/07/04 14:34:43;;;;;;;3.65;0.80;;;;;;;;;;4717713;30;20057;-65
2022/07/04 14:37:10;;;;;;;1.80;0.95;;;;;;;;;;4732851;30;20048;-65
2022/07/04 14:39:37;;;;;;;1.85;1.00;;;;;;;;;;4733024;30;20052;-64
2022/07/04 14:42:07;;;;;;;2.50;1.00;;;;;;;;;;4733185;30;20045;-63
2022/07/04 14:44:37;;;;;;;2.67;1.20;;;;;;;;;;4733051;30;20053;-65
2022/07/04 14:47:05;;;;;;;2.10;1.10;;;;;;;;;;4717264;30;20045;-64
2022/07/04 14:49:37;;;;;;;4.85;1.10;;;;;;;;;;4734318;30;20052;-63
2022/07/04 14:52:05;;;;;;;2.30;1.15;;;;;;;;;;4734558;30;20045;-63
2022/07/04 14:54:32;;;;;;;3.55;1.00;;;;;;;;;;4736082;30;20067;-64
2022/07/04 14:56:59;;;;;;;1.85;0.93;;;;;;;;;;4720001;30;20595;-64
2022/07/04 14:59:26;;;;;;;3.70;1.00;;;;;;;;;;4736213;30;20045;-63
2022/07/04 15:01:54;;;;;;;4.07;0.95;;;;;;;;;;4735814;30;20419;-64
2022/07/04 15:04:21;;;;;;;3.25;1.00;;;;;;;;;;4735814;30;20041;-60
2022/07/04 15:06:51;;;;;;;2.33;1.00;;;;;;;;;;4742614;30;20044;-64
2022/07/04 15:09:18;;;;;;;1.58;0.90;;;;;;;;;;4737664;30;20501;-64
2022/07/04 15:11:47;;;;;;;4.55;1.05;;;;;;;;;;4753333;30;20048;-66
2022/07/04 15:14:14;;;;;;;1.83;0.90;;;;;;;;;;4752801;30;20517;-64
2022/07/04 15:16:42;;;;;;;2.10;1.02;;;;;;;;;;4753683;30;20055;-63
2022/07/04 15:19:10;;;;;;;1.67;1.00;;;;;;;;;;4752935;30;20083;-60
2022/07/04 15:24:23;;;;;;;1.52;1.00;;;;;;;;;;4753231;30;20044;-64
2022/07/04 15:26:52;;;;;;;4.45;0.90;;;;;;;;;;4752909;30;20079;-65
2022/07/04 15:29:22;;;;;;;1.38;0.90;;;;;;;;;;4753152;30;20524;-66
2022/07/04 15:31:50;;;;;;;4.45;1.00;;;;;;;;;;4753097;30;20094;-64
2022/07/04 15:34:18;;;;;;;1.42;0.77;;;;;;;;;;4752911;30;20119;-65
2022/07/04 15:36:46;;;;;;;3.10;1.10;;;;;;;;;;4753607;30;20044;-65
2022/07/04 15:39:16;;;;;;;3.35;0.85;;;;;;;;;;4752748;30;20080;-61
2022/07/04 15:41:47;;;;;;;2.15;1.15;;;;;;;;;;4753125;30;20052;-65
2022/07/04 15:44:14;;;;;;;0.98;0.80;;;;;;;;;;4752889;30;20079;-63
2022/07/04 15:49:29;;;;;;;4.22;2.20;;;;;;;;;;4752792;30;20147;-65
2022/07/04 15:51:56;;;;;;;3.92;2.40;;;;;;;;;;4717115;30;20061;-66
2022/07/04 15:54:23;;;;;;;1.90;0.95;;;;;;;;;;4727127;30;20051;-65
2022/07/04 15:56:51;;;;;;;3.13;0.85;;;;;;;;;;4734754;30;20060;-61
2022/07/04 15:59:18;;;;;;;2.78;1.40;;;;;;;;;;4734799;30;20044;-64
2022/07/04 16:01:45;;;;;;;4.55;3.30;;;;;;;;;;4734340;30;20570;-65
2022/07/04 16:04:13;;;;;;;4.72;2.58;;;;;;;;;;4735065;30;20049;-63
2022/07/04 16:06:41;;;;;;;1.85;1.40;;;;;;;;;;4734667;30;20498;-64
2022/07/04 16:09:08;;;;;;;1.67;1.17;;;;;;;;;;4734654;30;20080;-61
2022/07/04 16:11:35;;;;;;;4.03;1.30;;;;;;;;;;4734938;30;20102;-63
2022/07/04 16:14:03;;;;;;;2.22;1.30;;;;;;;;;;4734808;30;20063;-64
2022/07/04 16:16:31;;;;;;;36.15;21.42;;;;;;;;;;4734588;30;20049;-62
2022/07/04 16:19:00;;;;;;;6.57;2.72;;;;;;;;;;4718896;30;20771;-64
2022/07/04 16:21:27;;;;;;;2.00;1.10;;;;;;;;;;4734285;30;20112;-65
2022/07/04 16:23:57;;;;;;;3.08;1.10;;;;;;;;;;4734652;30;20053;-66
2022/07/04 16:26:25;;;;;;;1.70;1.00;;;;;;;;;;4734721;30;20064;-63
2022/07/04 16:28:52;;;;;;;3.60;1.20;;;;;;;;;;4734320;30;20589;-62
2022/07/04 16:31:19;;;;;;;2.15;1.00;;;;;;;;;;4727001;30;20048;-64
2022/07/04 16:33:48;;;;;;;3.05;1.10;;;;;;;;;;4718569;30;20052;-63
2022/07/04 16:36:15;;;;;;;3.97;1.73;;;;;;;;;;4734348;30;20052;-65
2022/07/04 16:38:42;;;;;;;19.65;11.30;;;;;;;;;;4734570;30;20413;-64
2022/07/04 16:41:10;;;;;;;4.22;1.50;;;;;;;;;;4734174;30;20548;-63
2022/07/04 16:43:37;;;;;;;2.60;1.13;;;;;;;;;;4734216;30;20080;-64
2022/07/04 16:46:07;;;;;;;3.63;1.20;;;;;;;;;;4734259;30;20048;-63
2022/07/04 16:48:34;;;;;;;4.43;1.20;;;;;;;;;;4734006;30;20045;-64
2022/07/04 16:51:08;;;;;;;2.17;1.00;;;;;;;;;;4722068;30;20111;-61
2022/07/04 16:53:35;;;;;;;1.58;0.90;;;;;;;;;;4716773;30;20103;-65
2022/07/04 16:56:03;;;;;;;3.13;1.00;;;;;;;;;;4716275;30;20096;-64
2022/07/04 16:58:30;;;;;;;6.40;2.88;;;;;;;;;;4716198;30;20056;-63
2022/07/04 17:00:57;;;;;;;6.93;2.13;;;;;;;;;;4716597;30;20106;-64
2022/07/04 17:03:26;;;;;;;2.30;1.38;;;;;;;;;;4716282;30;20053;-64
2022/07/04 17:05:53;;;;;;;1.95;1.10;;;;;;;;;;4716394;30;20061;-63
2022/07/04 17:08:20;;;;;;;2.05;1.25;;;;;;;;;;4716266;30;20053;-64
2022/07/04 17:10:48;;;;;;;1.88;1.10;;;;;;;;;;4715759;30;20066;-62
2022/07/04 17:13:15;;;;;;;1.65;1.20;;;;;;;;;;4716382;30;20453;-63
2022/07/04 17:15:42;;;;;;;2.45;1.30;;;;;;;;;;4716375;30;20072;-64
2022/07/04 17:18:09;;;;;;;3.08;1.20;;;;;;;;;;4700590;30;20057;-63
2022/07/04 17:20:42;;;;;;;1.73;1.25;;;;;;;;;;4715929;30;20536;-66
2022/07/04 17:23:10;;;;;;;;;;;;;;;;;;4716475;30;20107;-64
2022/07/04 17:25:40;;;;;;;2.75;1.50;;;;;;;;;;4716432;30;20295;-63
2022/07/04 17:28:07;;;;;;;3.08;1.55;;;;;;;;;;4716345;30;20059;-64
2022/07/04 17:30:35;;;;;;;6.32;1.85;;;;;;;;;;4716621;30;20461;-63
2022/07/04 17:33:02;;;;;;;4.20;1.45;;;;;;;;;;4716287;30;20041;-63
2022/07/04 17:35:29;;;;;;;11.65;7.93;;;;;;;;;;4716382;30;20061;-63
2022/07/04 17:37:57;;;;;;;3.30;1.92;;;;;;;;;;4716142;30;20045;-63
2022/07/04 17:40:25;;;;;;;3.05;1.38;;;;;;;;;;4716148;30;20045;-63
2022/07/04 17:43:15;;;;;;;3.30;1.08;;;;;;;;;;4716183;30;20048;-63
2022/07/04 17:45:50;;;;;;;3.45;1.30;;;;;;;;;;4716168;30;20052;-63
2022/07/04 17:48:19;;;;;;;3.00;1.30;;;;;;;;;;4708960;30;20422;-63
2022/07/04 17:50:47;;;;;;;2.78;1.38;;;;;;;;;;4724961;30;20065;-61
2022/07/04 17:53:14;;;;;;;2.03;1.25;;;;;;;;;;4733522;30;20049;-62
2022/07/04 17:55:41;;;;;;;4.47;1.60;;;;;;;;;;4733319;30;20060;-64
2022/07/04 17:58:09;;;;;;;2.55;1.23;;;;;;;;;;4733309;30;20068;-63
2022/07/04 18:00:36;;;;;;;2.90;1.40;;;;;;;;;;4733068;30;20547;-64
2022/07/04 18:03:03;;;;;;;3.03;1.20;;;;;;;;;;4733048;30;20140;-64
2022/07/04 18:05:31;;;;;;;3.00;1.30;;;;;;;;;;4733165;30;20056;-62
2022/07/04 18:07:58;;;;;;;2.67;1.48;;;;;;;;;;4733264;30;20075;-62
2022/07/04 18:10:25;;;;;;;1.60;1.20;;;;;;;;;;4733220;30;20107;-63
2022/07/04 18:12:53;;;;;;;1.48;1.13;;;;;;;;;;4733114;30;20087;-62
2022/07/04 18:15:20;;;;;;;2.08;1.30;;;;;;;;;;4733278;30;20045;-61
2022/07/04 18:17:47;;;;;;;4.30;1.77;;;;;;;;;;4717592;30;20103;-61